.
WxDataArchive / Data Records for 2013-08-05
2013-08-04 August 2013 2013-08-06

Data Records for Monday, 05 August 2013

Time	Temp	Chill	HIndex	Humid	Dewpt	 Wind 	HiWind	WindDir	Rain 	Barom 
-----	----	-----	------	-----	-----	------	------	-------	-----	----- 
00:00	60.7	60.7	60.7	81	54.8	0	0	---	0.00	30.103 
00:05	60.5	60.5	60.5	81	54.6	0	0	---	0.00	30.103 
00:10	60.4	60.4	60.4	81	54.5	0	0	---	0.00	30.103 
00:15	60.1	60.1	60.1	82	54.6	0	1	270	0.00	30.103 
00:20	60.1	60.1	60.1	83	54.9	0	0	---	0.00	30.103 
00:25	59.9	59.9	59.9	83	54.7	0	0	---	0.00	30.103 
00:30	59.8	59.8	59.8	83	54.6	0	0	---	0.00	30.104 
00:35	59.6	59.6	59.6	83	54.4	0	0	---	0.00	30.104 
00:40	59.5	59.5	59.5	84	54.7	0	0	---	0.00	30.104 
00:45	59.3	59.3	59.3	84	54.5	0	0	---	0.00	30.104 
00:50	59.2	59.2	59.2	84	54.4	0	0	---	0.00	30.104 
00:55	59.0	59.0	59.0	84	54.2	0	0	---	0.00	30.104 
01:00	58.9	58.9	58.9	84	54.1	0	0	---	0.00	30.104 
01:05	58.9	58.9	58.9	85	54.4	0	0	---	0.00	30.104 
01:10	58.7	58.7	58.7	85	54.2	0	0	---	0.00	30.104 
01:15	58.6	58.6	58.6	85	54.1	0	0	---	0.00	30.105 
01:20	58.4	58.4	58.4	86	54.2	0	0	---	0.00	30.105 
01:25	58.3	58.3	58.3	86	54.1	0	0	---	0.00	30.105 
01:30	58.3	58.3	58.3	86	54.1	0	0	---	0.00	30.105 
01:35	58.3	58.3	58.3	87	54.4	0	0	---	0.00	30.105 
01:40	58.1	58.1	58.1	87	54.2	0	0	---	0.00	30.105 
01:45	58.1	58.1	58.1	87	54.2	0	0	---	0.00	30.105 
01:50	58.1	58.1	58.1	87	54.2	0	0	---	0.00	30.105 
01:55	58.0	58.0	58.0	88	54.5	0	0	---	0.00	30.105 
02:00	58.0	58.0	58.0	88	54.5	0	0	---	0.00	30.107 
02:05	57.8	57.8	57.8	88	54.3	0	0	---	0.00	30.107 
02:10	57.8	57.8	57.8	88	54.3	0	0	---	0.00	30.107 
02:15	57.8	57.8	57.8	88	54.3	0	0	---	0.00	30.104 
02:20	57.8	57.8	57.8	88	54.3	0	0	---	0.00	30.104 
02:25	57.6	57.6	57.6	88	54.1	0	0	---	0.00	30.104 
02:30	57.6	57.6	57.6	88	54.1	0	0	---	0.00	30.104 
02:35	57.5	57.5	57.5	88	54.0	0	0	---	0.00	30.104 
02:40	57.5	57.5	57.5	88	54.0	0	0	---	0.00	30.104 
02:45	57.3	57.3	57.3	88	53.8	0	0	---	0.00	30.103 
02:50	57.3	57.3	57.3	88	53.8	0	0	---	0.00	30.103 
02:55	57.2	57.2	57.2	89	54.0	0	0	---	0.00	30.103 
03:00	57.0	57.0	57.0	89	53.8	0	0	---	0.00	30.102 
03:05	56.9	56.9	56.9	89	53.7	0	0	---	0.00	30.102 
03:10	56.9	56.9	56.9	89	53.7	0	0	---	0.00	30.102 
03:15	56.7	56.7	56.7	89	53.5	0	0	---	0.00	30.099 
03:20	56.6	56.6	56.6	90	53.7	0	0	---	0.00	30.099 
03:25	56.6	56.6	56.6	90	53.7	0	0	---	0.00	30.099 
03:30	56.5	56.5	56.5	90	53.6	0	0	---	0.00	30.100 
03:35	56.3	56.3	56.3	90	53.4	0	0	---	0.00	30.100 
03:40	56.3	56.3	56.3	90	53.4	0	0	---	0.00	30.100 
03:45	56.2	56.2	56.2	90	53.3	0	0	---	0.00	30.101 
03:50	56.2	56.2	56.2	90	53.3	0	0	---	0.00	30.101 
03:55	56.0	56.0	56.0	91	53.4	0	0	---	0.00	30.101 
04:00	56.0	56.0	56.0	91	53.4	0	0	---	0.00	30.096 
04:05	55.9	55.9	55.9	91	53.3	0	0	---	0.00	30.096 
04:10	55.9	55.9	55.9	91	53.3	0	0	---	0.00	30.096 
04:15	55.9	55.9	55.9	91	53.3	0	0	---	0.00	30.090 
04:20	55.9	55.9	55.9	91	53.3	0	0	---	0.00	30.090 
04:25	55.9	55.9	55.9	92	53.6	0	0	---	0.00	30.090 
04:30	56.0	56.0	56.0	92	53.7	0	0	---	0.00	30.089 
04:35	56.2	56.2	56.2	92	53.9	0	0	---	0.00	30.089 
04:40	56.2	56.2	56.2	92	53.9	0	0	---	0.00	30.089 
04:45	56.2	56.2	56.2	92	53.9	0	0	---	0.00	30.087 
04:50	56.2	56.2	56.2	92	53.9	0	0	---	0.00	30.087 
04:55	56.2	56.2	56.2	92	53.9	0	0	---	0.00	30.087 
05:00	56.2	56.2	56.2	92	53.9	0	0	---	0.00	30.088 
05:05	56.0	56.0	56.0	92	53.7	0	0	---	0.00	30.088 
05:10	56.0	56.0	56.0	92	53.7	0	0	---	0.00	30.088 
05:15	55.9	55.9	55.9	92	53.6	0	0	---	0.00	30.090 
05:20	55.9	55.9	55.9	92	53.6	0	0	---	0.00	30.090 
05:25	55.7	55.7	55.7	92	53.4	0	0	---	0.00	30.090 
05:30	55.6	55.6	55.6	92	53.3	0	0	---	0.00	30.088 
05:35	55.6	55.6	55.6	92	53.3	0	0	---	0.00	30.088 
05:40	55.4	55.4	55.4	92	53.1	0	0	---	0.00	30.088 
05:45	55.4	55.4	55.4	92	53.1	0	0	---	0.00	30.090 
05:50	55.3	55.3	55.3	92	53.0	0	0	---	0.00	30.090 
05:55	55.1	55.1	55.1	92	52.8	0	0	---	0.00	30.090 
06:00	55.1	55.1	55.1	92	52.8	0	0	---	0.00	30.092 
06:05	55.0	55.0	55.0	92	52.7	0	0	---	0.00	30.092 
06:10	54.8	54.8	54.8	93	52.8	0	0	---	0.00	30.092 
06:15	54.8	54.8	54.8	93	52.8	0	0	---	0.00	30.091 
06:20	54.7	54.7	54.7	93	52.7	0	0	---	0.00	30.091 
06:25	54.7	54.7	54.7	93	52.7	0	0	---	0.00	30.091 
06:30	54.5	54.5	54.5	93	52.5	0	0	---	0.00	30.090 
06:35	54.5	54.5	54.5	93	52.5	0	0	---	0.00	30.090 
06:40	54.4	54.4	54.4	93	52.4	0	0	---	0.00	30.090 
06:45	54.4	54.4	54.4	93	52.4	0	0	---	0.00	30.092 
06:50	54.2	54.2	54.2	93	52.2	0	0	---	0.00	30.092 
06:55	54.2	54.2	54.2	93	52.2	0	0	---	0.00	30.092 
07:00	54.2	54.2	54.2	93	52.2	0	0	---	0.00	30.091 
07:05	54.2	54.2	54.2	93	52.2	0	0	---	0.00	30.091 
07:10	54.4	54.4	54.4	93	52.4	0	0	---	0.00	30.091 
07:15	54.4	54.4	54.4	94	52.7	0	0	---	0.00	30.092 
07:20	54.5	54.5	54.5	94	52.8	0	0	---	0.00	30.092 
07:25	54.7	54.7	54.7	94	53.0	0	0	---	0.00	30.092 
07:30	54.8	54.8	54.8	94	53.1	0	0	---	0.00	30.094 
07:35	55.1	55.1	55.1	94	53.4	0	0	---	0.00	30.094 
07:40	55.6	55.6	55.6	94	53.9	0	0	---	0.00	30.094 
07:45	55.9	55.9	55.9	94	54.2	0	0	---	0.00	30.103 
07:50	56.3	56.3	56.3	95	54.9	0	0	---	0.00	30.103 
07:55	56.9	56.9	56.9	95	55.5	0	0	---	0.00	30.103 
08:00	57.6	57.6	57.6	95	56.2	0	1	270	0.00	30.097 
08:05	58.6	58.6	58.6	93	56.6	0	1	270	0.00	30.097 
08:10	59.5	59.5	59.5	90	56.6	0	0	---	0.00	30.097 
08:15	60.4	60.4	60.4	86	56.2	0	1	270	0.00	30.103 
08:20	61.0	61.0	61.0	82	55.5	0	2	270	0.00	30.103 
08:25	61.5	61.5	61.5	79	54.9	0	2	270	0.00	30.103 
08:30	62.1	62.1	62.1	78	55.2	0	2	270	0.00	30.091 
08:35	62.7	62.7	62.7	77	55.4	0	2	270	0.00	30.091 
08:40	63.2	63.2	63.2	75	55.1	1	2	270	0.00	30.091 
08:45	63.5	63.5	63.5	74	55.1	0	3	270	0.00	30.091 
08:50	63.7	63.7	63.7	74	55.3	1	2	270	0.00	30.091 
08:55	64.0	64.0	64.0	74	55.5	0	1	270	0.00	30.091 
09:00	64.2	64.2	64.2	73	55.4	0	1	270	0.00	30.093 
09:05	64.0	64.0	64.0	75	55.9	0	1	270	0.00	30.093 
09:10	64.0	64.0	64.0	76	56.3	0	2	270	0.00	30.093 
09:15	64.0	64.0	64.0	76	56.3	0	3	270	0.00	30.088 
09:20	64.0	64.0	64.0	75	55.9	1	3	270	0.00	30.088 
09:25	64.5	64.5	64.5	77	57.1	0	1	270	0.00	30.088 
09:30	65.2	65.2	65.2	74	56.7	0	1	270	0.00	30.089 
09:35	66.0	66.0	66.0	73	57.1	0	1	270	0.00	30.089 
09:40	66.4	66.4	66.4	72	57.1	0	3	270	0.00	30.089 
09:45	66.6	66.6	66.6	72	57.3	0	3	270	0.00	30.088 
09:50	66.8	66.8	66.8	72	57.5	0	1	270	0.00	30.088 
09:55	66.8	66.8	66.8	73	57.9	1	3	270	0.00	30.088 
10:00	67.1	67.1	67.1	73	58.1	0	2	270	0.00	30.085 
10:05	67.6	67.6	67.6	70	57.5	0	2	270	0.00	30.085 
10:10	68.3	68.3	68.3	71	58.5	0	2	270	0.00	30.085 
10:15	68.8	68.8	68.8	69	58.2	1	2	270	0.00	30.086 
10:20	69.1	69.1	69.1	69	58.5	1	4	270	0.00	30.086 
10:25	69.6	69.6	69.6	67	58.1	0	1	270	0.00	30.086 
10:30	70.4	70.4	70.4	64	57.6	0	2	270	0.00	30.085 
10:35	71.1	71.1	71.1	60	56.5	0	2	270	0.00	30.085 
10:40	71.8	71.8	71.8	60	57.2	0	2	270	0.00	30.085 
10:45	72.0	72.0	72.0	60	57.3	1	5	68	0.00	30.074 
10:50	72.1	72.1	72.1	59	57.0	0	1	68	0.00	30.074 
10:55	72.7	72.7	72.7	59	57.5	0	1	68	0.00	30.074 
11:00	72.8	72.8	72.8	54	55.2	0	3	68	0.00	30.081 
11:05	73.0	73.0	73.0	54	55.4	0	2	68	0.00	30.081 
11:10	72.7	72.7	72.7	55	55.6	1	3	68	0.00	30.081 
11:15	72.7	72.7	72.7	53	54.6	0	2	68	0.00	30.084 
11:20	72.8	72.8	72.8	53	54.7	0	2	68	0.00	30.084 
11:25	72.7	72.7	72.7	55	55.6	0	1	68	0.00	30.084 
11:30	72.7	72.7	72.7	56	56.1	0	3	68	0.00	30.077 
11:35	72.8	72.8	72.8	53	54.7	0	3	68	0.00	30.077 
11:40	73.3	73.3	73.3	53	55.1	0	2	68	0.00	30.077 
11:45	73.5	73.5	73.5	54	55.8	0	2	68	0.00	30.072 
11:50	74.0	74.0	74.0	56	57.3	0	1	68	0.00	30.072 
11:55	73.9	73.9	73.9	54	56.2	1	2	68	0.00	30.072 
12:00	73.7	73.7	73.7	53	55.5	0	2	45	0.00	30.070 
12:05	73.9	73.9	73.9	48	53.0	0	2	45	0.00	30.070 
12:10	73.9	73.9	73.9	49	53.5	0	1	45	0.00	30.070 
12:15	74.0	74.0	74.0	48	53.0	0	1	45	0.00	30.067 
12:20	74.0	74.0	74.0	51	54.7	0	1	45	0.00	30.067 
12:25	74.0	74.0	74.0	49	53.6	0	1	45	0.00	30.067 
12:30	74.0	74.0	74.0	51	54.7	0	2	45	0.00	30.056 
12:35	73.9	73.9	73.9	51	54.6	0	1	45	0.00	30.056 
12:40	73.9	73.9	73.9	53	55.7	0	1	45	0.00	30.056 
12:45	74.0	74.0	74.0	54	56.3	0	1	45	0.00	30.046 
12:50	74.0	74.0	74.0	54	56.3	0	1	45	0.00	30.046 
12:55	74.4	74.4	74.4	54	56.7	0	1	45	0.00	30.046 
13:00	74.7	74.7	74.7	53	56.4	1	3	45	0.00	30.043 
13:05	75.3	75.3	77.7	52	56.4	0	1	45	0.00	30.043 
13:10	75.6	75.6	77.9	49	55.1	0	1	45	0.00	30.043 
13:15	75.3	75.3	77.7	52	56.4	1	4	292	0.00	30.038 
13:20	75.4	75.4	77.8	51	56.0	0	2	292	0.00	30.038 
13:25	76.0	76.0	78.1	51	56.5	1	3	112	0.00	30.038 
13:30	76.3	76.3	78.2	51	56.8	1	4	90	0.00	30.021 
13:35	76.5	76.5	78.3	50	56.5	0	4	90	0.00	30.021 
13:40	76.7	76.7	78.4	51	57.2	1	2	90	0.00	30.021 
13:45	76.5	76.5	78.3	51	57.0	0	3	90	0.00	30.019 
13:50	76.3	76.3	78.2	50	56.3	1	3	68	0.00	30.019 
13:55	76.7	76.7	78.5	53	58.3	0	3	68	0.00	30.019 
14:00	76.7	76.7	78.5	52	57.7	0	3	45	0.00	30.020 
14:05	76.8	76.8	78.5	53	58.4	2	5	112	0.00	30.020 
14:10	76.5	76.5	78.3	51	57.0	1	4	315	0.00	30.020 
14:15	76.8	76.8	78.5	50	56.7	1	3	248	0.00	30.012 
14:20	77.4	77.4	78.8	49	56.7	1	5	68	0.00	30.012 
14:25	77.2	77.2	78.7	49	56.5	1	5	90	0.00	30.012 
14:30	76.7	76.7	78.4	50	56.6	1	2	90	0.00	30.018 
14:35	76.3	76.3	78.2	51	56.8	1	2	270	0.00	30.018 
14:40	75.8	75.8	78.0	50	55.8	1	2	315	0.00	30.018 
14:45	75.3	75.3	77.7	51	55.9	0	2	315	0.00	30.024 
14:50	75.3	75.3	77.7	51	55.9	0	2	315	0.00	30.024 
14:55	75.1	75.1	77.7	50	55.2	1	4	112	0.00	30.024 
15:00	75.1	75.1	77.6	53	56.8	0	1	112	0.00	30.009 
15:05	75.3	75.3	77.7	52	56.4	0	3	112	0.00	30.009 
15:10	75.3	75.3	77.7	52	56.4	1	3	112	0.00	30.009 
15:15	75.3	75.3	77.7	53	57.0	0	1	112	0.00	30.019 
15:20	75.1	75.1	77.6	53	56.8	0	2	112	0.00	30.019 
15:25	75.3	75.3	77.7	55	58.0	0	1	112	0.00	30.019 
15:30	75.3	75.3	77.7	53	57.0	0	3	112	0.00	30.010 
15:35	75.3	75.3	77.7	54	57.5	0	4	112	0.00	30.010 
15:40	75.3	75.3	77.7	55	58.0	0	2	112	0.00	30.010 
15:45	74.7	74.7	74.7	54	56.9	1	3	292	0.00	30.011 
15:50	74.6	74.6	74.6	55	57.3	0	4	292	0.00	30.011 
15:55	74.4	74.4	74.4	56	57.7	0	3	270	0.00	30.011 
16:00	74.2	74.2	74.2	56	57.5	1	3	270	0.00	30.008 
16:05	74.0	74.0	74.0	57	57.8	0	2	315	0.00	30.008 
16:10	74.0	74.0	74.0	57	57.8	0	1	315	0.00	30.008 
16:15	73.9	73.9	73.9	55	56.7	1	3	292	0.00	30.010 
16:20	73.5	73.5	73.5	57	57.3	0	1	292	0.00	30.010 
16:25	73.3	73.3	73.3	57	57.1	0	3	292	0.00	30.010 
16:30	73.2	73.2	73.2	57	57.0	0	1	292	0.00	30.005 
16:35	73.2	73.2	73.2	58	57.5	0	1	292	0.00	30.005 
16:40	73.2	73.2	73.2	57	57.0	0	2	292	0.00	30.005 
16:45	73.3	73.3	73.3	57	57.1	0	1	292	0.00	29.996 
16:50	73.5	73.5	73.5	58	57.8	0	1	292	0.00	29.996 
16:55	73.7	73.7	73.7	58	58.0	0	1	292	0.00	29.996 
17:00	73.9	73.9	73.9	58	58.2	0	1	292	0.00	29.993 
17:05	74.0	74.0	74.0	57	57.8	0	2	292	0.00	29.993 
17:10	74.0	74.0	74.0	57	57.8	1	3	315	0.00	29.993 
17:15	74.0	74.0	74.0	56	57.3	0	3	45	0.00	29.990 
17:20	73.9	73.9	73.9	56	57.2	0	2	45	0.00	29.990 
17:25	73.9	73.9	73.9	58	58.2	0	1	45	0.00	29.990 
17:30	73.7	73.7	73.7	59	58.5	0	1	45	0.00	29.988 
17:35	73.3	73.3	73.3	59	58.1	0	1	45	0.00	29.988 
17:40	73.3	73.3	73.3	61	59.0	0	1	45	0.00	29.988 
17:45	73.2	73.2	73.2	60	58.5	0	1	45	0.00	29.984 
17:50	73.0	73.0	73.0	61	58.7	0	1	45	0.00	29.984 
17:55	73.0	73.0	73.0	61	58.7	0	1	45	0.00	29.984 
18:00	73.0	73.0	73.0	62	59.2	0	1	45	0.00	29.990 
18:05	72.8	72.8	72.8	62	59.0	0	1	45	0.00	29.990 
18:10	72.8	72.8	72.8	63	59.5	0	1	45	0.00	29.990 
18:15	72.7	72.7	72.7	63	59.4	0	1	45	0.00	29.989 
18:20	72.7	72.7	72.7	63	59.4	0	1	45	0.00	29.989 
18:25	72.5	72.5	72.5	64	59.6	0	1	45	0.00	29.989 
18:30	72.3	72.3	72.3	63	59.0	0	1	45	0.00	29.985 
18:35	72.3	72.3	72.3	63	59.0	0	1	45	0.00	29.985 
18:40	72.5	72.5	72.5	64	59.6	0	2	45	0.00	29.985 
18:45	72.5	72.5	72.5	64	59.6	0	1	45	0.00	29.983 
18:50	72.7	72.7	72.7	64	59.8	0	1	45	0.00	29.983 
18:55	72.7	72.7	72.7	64	59.8	0	2	45	0.00	29.983 
19:00	72.7	72.7	72.7	64	59.8	0	1	45	0.00	29.983 
19:05	72.5	72.5	72.5	65	60.0	0	2	45	0.00	29.983 
19:10	72.3	72.3	72.3	65	59.9	0	2	45	0.00	29.983 
19:15	72.3	72.3	72.3	65	59.9	1	3	45	0.00	29.979 
19:20	72.3	72.3	72.3	66	60.3	0	2	45	0.00	29.979 
19:25	72.3	72.3	72.3	66	60.3	0	2	45	0.00	29.979 
19:30	72.1	72.1	72.1	66	60.1	0	2	45	0.00	29.975 
19:35	72.1	72.1	72.1	66	60.1	0	1	45	0.00	29.975 
19:40	72.1	72.1	72.1	66	60.1	0	1	45	0.00	29.975 
19:45	72.1	72.1	72.1	67	60.5	0	1	45	0.00	29.966 
19:50	72.1	72.1	72.1	68	60.9	0	2	45	0.00	29.966 
19:55	72.0	72.0	72.0	69	61.3	0	1	45	0.00	29.966 
20:00	71.8	71.8	71.8	69	61.1	0	1	45	0.00	29.968 
20:05	71.6	71.6	71.6	70	61.3	0	0	---	0.00	29.968 
20:10	71.5	71.5	71.5	70	61.2	0	1	45	0.00	29.968 
20:15	71.3	71.3	71.3	70	61.0	0	1	45	0.00	29.958 
20:20	71.1	71.1	71.1	70	60.8	0	1	45	0.00	29.958 
20:25	70.9	70.9	70.9	70	60.6	0	1	45	0.00	29.958 
20:30	70.8	70.8	70.8	70	60.5	0	2	45	0.00	29.946 
20:35	70.8	70.8	70.8	70	60.5	0	1	45	0.00	29.946 
20:40	70.6	70.6	70.6	70	60.3	0	2	135	0.00	29.946 
20:45	70.6	70.6	70.6	70	60.3	0	1	135	0.00	29.952 
20:50	70.4	70.4	70.4	71	60.5	0	1	135	0.00	29.952 
20:55	70.4	70.4	70.4	72	60.9	0	0	---	0.00	29.952 
21:00	70.3	70.3	70.3	71	60.4	0	1	135	0.00	29.944 
21:05	70.3	70.3	70.3	72	60.8	0	0	---	0.00	29.944 
21:10	70.1	70.1	70.1	71	60.2	0	1	135	0.00	29.944 
21:15	70.1	70.1	70.1	72	60.6	0	1	135	0.00	29.941 
21:20	70.1	70.1	70.1	72	60.6	0	2	135	0.00	29.941 
21:25	70.1	70.1	70.1	72	60.6	0	1	135	0.00	29.941 
21:30	69.9	69.9	69.9	73	60.8	0	1	135	0.00	29.942 
21:35	69.9	69.9	69.9	72	60.4	0	3	135	0.00	29.942 
21:40	69.9	69.9	69.9	72	60.4	0	1	135	0.00	29.942 
21:45	69.9	69.9	69.9	72	60.4	0	0	---	0.00	29.949 
21:50	69.9	69.9	69.9	73	60.8	0	0	---	0.00	29.949 
21:55	69.8	69.8	69.8	73	60.7	0	0	---	0.00	29.949 
22:00	69.6	69.6	69.6	73	60.6	0	2	338	0.00	29.955 
22:05	69.6	69.6	69.6	73	60.6	0	0	---	0.00	29.955 
22:10	69.6	69.6	69.6	73	60.6	0	0	---	0.00	29.955 
22:15	69.4	69.4	69.4	72	60.0	0	0	---	0.00	29.952 
22:20	69.4	69.4	69.4	72	60.0	0	0	---	0.00	29.952 
22:25	69.4	69.4	69.4	72	60.0	0	0	---	0.00	29.952 
22:30	69.4	69.4	69.4	73	60.4	0	0	---	0.00	29.951 
22:35	69.3	69.3	69.3	73	60.3	0	0	---	0.00	29.951 
22:40	69.3	69.3	69.3	73	60.3	0	1	338	0.00	29.951 
22:45	69.1	69.1	69.1	73	60.1	0	1	338	0.00	29.947 
22:50	69.1	69.1	69.1	73	60.1	0	1	338	0.00	29.947 
22:55	69.1	69.1	69.1	74	60.5	0	0	---	0.00	29.947 
23:00	68.9	68.9	68.9	74	60.3	0	0	---	0.00	29.940 
23:05	68.9	68.9	68.9	74	60.3	0	0	---	0.00	29.940 
23:10	68.8	68.8	68.8	74	60.2	0	0	---	0.00	29.940 
23:15	68.6	68.6	68.6	75	60.3	0	0	---	0.00	29.941 
23:20	68.6	68.6	68.6	75	60.3	0	0	---	0.00	29.941 
23:25	68.4	68.4	68.4	76	60.5	0	0	---	0.00	29.941 
23:30	68.4	68.4	68.4	76	60.5	0	0	---	0.00	29.944 
23:35	68.3	68.3	68.3	77	60.8	0	0	---	0.00	29.944 
23:40	68.3	68.3	68.3	77	60.8	0	0	---	0.00	29.944 
23:45	68.1	68.1	68.1	77	60.6	0	0	---	0.00	29.939 
23:50	68.1	68.1	68.1	77	60.6	0	0	---	0.00	29.939 
23:55	67.9	67.9	67.9	77	60.4	0	0	---	0.00	29.939 

CoCoRaHS
IN-AL-39
A2 Web Hosting
Creative Commons License
GoDaddy
search engine by freefind advanced

loaded 2018-11-19 10:31:05 • last modified 2010-11-18 10:43:29
Privacy PolicyDisclaimer
• wx.awcolley.com is powered by PmWiki v.2002016 •
• all content (unless otherwise noted) © 2018 A W Colley